sensor_id;sensor_type;location;lat;lon;timestamp;temperature;humidity
16655;DHT22;8441;51.344;7.022;2024-01-30T00:01:55;8.10;99.90
16655;DHT22;8441;51.344;7.022;2024-01-30T00:04:22;8.20;99.90
16655;DHT22;8441;51.344;7.022;2024-01-30T00:06:51;8.10;99.90
16655;DHT22;8441;51.344;7.022;2024-01-30T00:09:19;8.10;99.90
16655;DHT22;8441;51.344;7.022;2024-01-30T00:11:47;8.10;99.90
16655;DHT22;8441;51.344;7.022;2024-01-30T00:14:14;8.10;99.90
16655;DHT22;8441;51.344;7.022;2024-01-30T00:16:41;8.20;99.90
16655;DHT22;8441;51.344;7.022;2024-01-30T00:19:08;8.20;99.90
16655;DHT22;8441;51.344;7.022;2024-01-30T00:21:36;8.20;99.90
16655;DHT22;8441;51.344;7.022;2024-01-30T00:24:05;8.20;99.90
16655;DHT22;8441;51.344;7.022;2024-01-30T00:26:32;8.20;99.90
16655;DHT22;8441;51.344;7.022;2024-01-30T00:28:59;8.20;99.90
16655;DHT22;8441;51.344;7.022;2024-01-30T00:31:27;8.20;99.90
16655;DHT22;8441;51.344;7.022;2024-01-30T00:33:54;8.20;99.90
16655;DHT22;8441;51.344;7.022;2024-01-30T00:36:21;8.20;99.90
16655;DHT22;8441;51.344;7.022;2024-01-30T00:38:49;8.20;99.90
16655;DHT22;8441;51.344;7.022;2024-01-30T00:41:19;8.20;99.90
16655;DHT22;8441;51.344;7.022;2024-01-30T00:43:46;8.20;99.90
16655;DHT22;8441;51.344;7.022;2024-01-30T00:46:13;8.20;99.90
16655;DHT22;8441;51.344;7.022;2024-01-30T00:48:41;8.20;99.90
16655;DHT22;8441;51.344;7.022;2024-01-30T00:51:08;8.20;99.90
16655;DHT22;8441;51.344;7.022;2024-01-30T00:53:35;8.20;99.90
16655;DHT22;8441;51.344;7.022;2024-01-30T00:56:03;8.10;99.90
16655;DHT22;8441;51.344;7.022;2024-01-30T00:58:32;8.10;99.90
16655;DHT22;8441;51.344;7.022;2024-01-30T01:00:59;8.20;99.90
16655;DHT22;8441;51.344;7.022;2024-01-30T01:03:26;8.20;99.90
16655;DHT22;8441;51.344;7.022;2024-01-30T01:05:54;8.20;99.90
16655;DHT22;8441;51.344;7.022;2024-01-30T01:08:21;8.20;99.90
16655;DHT22;8441;51.344;7.022;2024-01-30T01:10:48;8.10;99.90
16655;DHT22;8441;51.344;7.022;2024-01-30T01:13:14;8.00;99.90
16655;DHT22;8441;51.344;7.022;2024-01-30T01:15:43;8.00;99.90
16655;DHT22;8441;51.344;7.022;2024-01-30T01:18:10;7.90;99.90
16655;DHT22;8441;51.344;7.022;2024-01-30T01:20:38;7.90;99.90
16655;DHT22;8441;51.344;7.022;2024-01-30T01:23:05;7.90;99.90
16655;DHT22;8441;51.344;7.022;2024-01-30T01:25:32;8.00;99.90
16655;DHT22;8441;51.344;7.022;2024-01-30T01:28:00;8.00;99.90
16655;DHT22;8441;51.344;7.022;2024-01-30T01:30:27;8.00;99.90
16655;DHT22;8441;51.344;7.022;2024-01-30T01:32:56;8.00;99.90
16655;DHT22;8441;51.344;7.022;2024-01-30T01:35:27;8.00;99.90
16655;DHT22;8441;51.344;7.022;2024-01-30T01:37:54;8.00;99.90
16655;DHT22;8441;51.344;7.022;2024-01-30T01:40:23;7.90;99.90
16655;DHT22;8441;51.344;7.022;2024-01-30T01:42:56;7.90;99.90
16655;DHT22;8441;51.344;7.022;2024-01-30T01:45:23;7.90;99.90
16655;DHT22;8441;51.344;7.022;2024-01-30T01:47:52;8.00;99.90
16655;DHT22;8441;51.344;7.022;2024-01-30T01:50:21;8.00;99.90
16655;DHT22;8441;51.344;7.022;2024-01-30T01:52:49;7.90;99.90
16655;DHT22;8441;51.344;7.022;2024-01-30T01:55:18;8.00;99.90
16655;DHT22;8441;51.344;7.022;2024-01-30T01:57:50;7.90;99.90
16655;DHT22;8441;51.344;7.022;2024-01-30T02:00:18;7.90;99.90
16655;DHT22;8441;51.344;7.022;2024-01-30T02:02:47;7.90;99.90
16655;DHT22;8441;51.344;7.022;2024-01-30T02:05:14;7.80;99.90
16655;DHT22;8441;51.344;7.022;2024-01-30T02:07:43;7.80;99.90
16655;DHT22;8441;51.344;7.022;2024-01-30T02:10:11;7.90;99.90
16655;DHT22;8441;51.344;7.022;2024-01-30T02:12:38;8.00;99.90
16655;DHT22;8441;51.344;7.022;2024-01-30T02:15:06;8.00;99.90
16655;DHT22;8441;51.344;7.022;2024-01-30T02:17:33;7.90;99.90
16655;DHT22;8441;51.344;7.022;2024-01-30T02:20:01;7.90;99.90
16655;DHT22;8441;51.344;7.022;2024-01-30T02:22:33;7.90;99.90
16655;DHT22;8441;51.344;7.022;2024-01-30T02:25:01;8.00;99.90
16655;DHT22;8441;51.344;7.022;2024-01-30T02:27:28;8.00;99.90
16655;DHT22;8441;51.344;7.022;2024-01-30T02:29:55;8.00;99.90
16655;DHT22;8441;51.344;7.022;2024-01-30T02:32:22;8.00;99.90
16655;DHT22;8441;51.344;7.022;2024-01-30T02:34:50;8.00;99.90
16655;DHT22;8441;51.344;7.022;2024-01-30T02:37:17;8.00;99.90
16655;DHT22;8441;51.344;7.022;2024-01-30T02:39:46;8.00;99.90
16655;DHT22;8441;51.344;7.022;2024-01-30T02:42:13;8.00;99.90
16655;DHT22;8441;51.344;7.022;2024-01-30T02:44:40;7.90;99.90
16655;DHT22;8441;51.344;7.022;2024-01-30T02:47:08;7.90;99.90
16655;DHT22;8441;51.344;7.022;2024-01-30T02:49:35;8.00;99.90
16655;DHT22;8441;51.344;7.022;2024-01-30T02:52:03;8.00;99.90
16655;DHT22;8441;51.344;7.022;2024-01-30T02:54:30;8.00;99.90
16655;DHT22;8441;51.344;7.022;2024-01-30T02:56:59;8.10;99.90
16655;DHT22;8441;51.344;7.022;2024-01-30T02:59:26;8.10;99.90
16655;DHT22;8441;51.344;7.022;2024-01-30T03:01:53;8.10;99.90
16655;DHT22;8441;51.344;7.022;2024-01-30T03:04:21;8.10;99.90
16655;DHT22;8441;51.344;7.022;2024-01-30T03:06:48;8.00;99.90
16655;DHT22;8441;51.344;7.022;2024-01-30T03:09:16;8.00;99.90
16655;DHT22;8441;51.344;7.022;2024-01-30T03:11:44;8.00;99.90
16655;DHT22;8441;51.344;7.022;2024-01-30T03:14:13;8.00;99.90
16655;DHT22;8441;51.344;7.022;2024-01-30T03:16:40;8.00;99.90
16655;DHT22;8441;51.344;7.022;2024-01-30T03:19:07;8.00;99.90
16655;DHT22;8441;51.344;7.022;2024-01-30T03:21:35;8.10;99.90
16655;DHT22;8441;51.344;7.022;2024-01-30T03:24:02;8.10;99.90
16655;DHT22;8441;51.344;7.022;2024-01-30T03:26:30;8.10;99.90
16655;DHT22;8441;51.344;7.022;2024-01-30T03:28:57;8.00;99.90
16655;DHT22;8441;51.344;7.022;2024-01-30T03:31:26;8.00;99.90
16655;DHT22;8441;51.344;7.022;2024-01-30T03:33:53;8.00;99.90
16655;DHT22;8441;51.344;7.022;2024-01-30T03:36:21;8.20;99.90
16655;DHT22;8441;51.344;7.022;2024-01-30T03:38:48;8.10;99.90
16655;DHT22;8441;51.344;7.022;2024-01-30T03:41:15;8.20;99.90
16655;DHT22;8441;51.344;7.022;2024-01-30T03:43:42;8.10;99.90
16655;DHT22;8441;51.344;7.022;2024-01-30T03:46:12;8.10;99.90
16655;DHT22;8441;51.344;7.022;2024-01-30T03:48:41;8.20;99.90
16655;DHT22;8441;51.344;7.022;2024-01-30T03:51:08;8.20;99.90
16655;DHT22;8441;51.344;7.022;2024-01-30T03:53:40;8.10;99.90
16655;DHT22;8441;51.344;7.022;2024-01-30T03:56:07;8.20;99.90
16655;DHT22;8441;51.344;7.022;2024-01-30T03:58:35;8.20;99.90
16655;DHT22;8441;51.344;7.022;2024-01-30T04:01:02;8.20;99.90
16655;DHT22;8441;51.344;7.022;2024-01-30T04:03:30;8.20;99.90
16655;DHT22;8441;51.344;7.022;2024-01-30T04:05:59;8.30;99.90
16655;DHT22;8441;51.344;7.022;2024-01-30T04:08:26;8.30;99.90
16655;DHT22;8441;51.344;7.022;2024-01-30T04:10:53;8.30;99.90
16655;DHT22;8441;51.344;7.022;2024-01-30T04:13:21;8.40;99.90
16655;DHT22;8441;51.344;7.022;2024-01-30T04:15:48;8.30;99.90
16655;DHT22;8441;51.344;7.022;2024-01-30T04:18:15;8.30;99.90
16655;DHT22;8441;51.344;7.022;2024-01-30T04:20:42;8.30;99.90
16655;DHT22;8441;51.344;7.022;2024-01-30T04:23:11;8.30;99.90
16655;DHT22;8441;51.344;7.022;2024-01-30T04:25:39;8.30;99.90
16655;DHT22;8441;51.344;7.022;2024-01-30T04:28:06;8.30;99.90
16655;DHT22;8441;51.344;7.022;2024-01-30T04:30:33;8.30;99.90
16655;DHT22;8441;51.344;7.022;2024-01-30T04:33:00;8.20;99.90
16655;DHT22;8441;51.344;7.022;2024-01-30T04:35:28;8.20;99.90
16655;DHT22;8441;51.344;7.022;2024-01-30T04:37:55;8.10;99.90
16655;DHT22;8441;51.344;7.022;2024-01-30T04:40:24;8.20;99.90
16655;DHT22;8441;51.344;7.022;2024-01-30T04:42:51;8.20;99.90
16655;DHT22;8441;51.344;7.022;2024-01-30T04:45:18;8.20;99.90
16655;DHT22;8441;51.344;7.022;2024-01-30T04:47:46;8.10;99.90
16655;DHT22;8441;51.344;7.022;2024-01-30T04:50:13;8.10;99.90
16655;DHT22;8441;51.344;7.022;2024-01-30T04:52:40;8.10;99.90
16655;DHT22;8441;51.344;7.022;2024-01-30T04:55:08;8.20;99.90
16655;DHT22;8441;51.344;7.022;2024-01-30T04:57:37;8.20;99.90
16655;DHT22;8441;51.344;7.022;2024-01-30T05:00:05;8.20;99.90
16655;DHT22;8441;51.344;7.022;2024-01-30T05:02:32;8.20;99.90
16655;DHT22;8441;51.344;7.022;2024-01-30T05:05:00;8.20;99.90
16655;DHT22;8441;51.344;7.022;2024-01-30T05:07:27;8.20;99.90
16655;DHT22;8441;51.344;7.022;2024-01-30T05:09:54;8.10;99.90
16655;DHT22;8441;51.344;7.022;2024-01-30T05:12:21;8.10;99.90
16655;DHT22;8441;51.344;7.022;2024-01-30T05:14:50;8.10;99.90
16655;DHT22;8441;51.344;7.022;2024-01-30T05:17:17;8.10;99.90
16655;DHT22;8441;51.344;7.022;2024-01-30T05:19:45;8.10;99.90
16655;DHT22;8441;51.344;7.022;2024-01-30T05:22:12;8.10;99.90
16655;DHT22;8441;51.344;7.022;2024-01-30T05:24:41;8.20;99.90
16655;DHT22;8441;51.344;7.022;2024-01-30T05:27:09;8.20;99.90
16655;DHT22;8441;51.344;7.022;2024-01-30T05:29:36;8.20;99.90
16655;DHT22;8441;51.344;7.022;2024-01-30T05:32:05;8.20;99.90
16655;DHT22;8441;51.344;7.022;2024-01-30T05:34:33;8.10;99.90
16655;DHT22;8441;51.344;7.022;2024-01-30T05:37:00;8.10;99.90
16655;DHT22;8441;51.344;7.022;2024-01-30T05:39:27;8.00;99.90
16655;DHT22;8441;51.344;7.022;2024-01-30T05:41:55;8.00;99.90
16655;DHT22;8441;51.344;7.022;2024-01-30T05:44:22;8.00;99.90
16655;DHT22;8441;51.344;7.022;2024-01-30T05:46:49;8.00;99.90
16655;DHT22;8441;51.344;7.022;2024-01-30T05:49:18;7.90;99.90
16655;DHT22;8441;51.344;7.022;2024-01-30T05:51:45;7.90;99.90
16655;DHT22;8441;51.344;7.022;2024-01-30T05:54:13;7.90;99.90
16655;DHT22;8441;51.344;7.022;2024-01-30T05:56:40;8.00;99.90
16655;DHT22;8441;51.344;7.022;2024-01-30T05:59:07;8.00;99.90
16655;DHT22;8441;51.344;7.022;2024-01-30T06:01:34;8.00;99.90
16655;DHT22;8441;51.344;7.022;2024-01-30T06:04:02;8.00;99.90
16655;DHT22;8441;51.344;7.022;2024-01-30T06:06:31;8.00;99.90
16655;DHT22;8441;51.344;7.022;2024-01-30T06:08:59;8.00;99.90
16655;DHT22;8441;51.344;7.022;2024-01-30T06:11:26;8.00;99.90
16655;DHT22;8441;51.344;7.022;2024-01-30T06:13:53;8.00;99.90
16655;DHT22;8441;51.344;7.022;2024-01-30T06:16:21;8.00;99.90
16655;DHT22;8441;51.344;7.022;2024-01-30T06:18:48;8.00;99.90
16655;DHT22;8441;51.344;7.022;2024-01-30T06:21:15;8.00;99.90
16655;DHT22;8441;51.344;7.022;2024-01-30T06:23:44;8.00;99.90
16655;DHT22;8441;51.344;7.022;2024-01-30T06:26:12;8.00;99.90
16655;DHT22;8441;51.344;7.022;2024-01-30T06:28:39;7.90;99.90
16655;DHT22;8441;51.344;7.022;2024-01-30T06:31:06;7.90;99.90
16655;DHT22;8441;51.344;7.022;2024-01-30T06:33:33;7.90;99.90
16655;DHT22;8441;51.344;7.022;2024-01-30T06:36:01;7.90;99.90
16655;DHT22;8441;51.344;7.022;2024-01-30T06:38:28;7.90;99.90
16655;DHT22;8441;51.344;7.022;2024-01-30T06:40:56;7.90;99.90
16655;DHT22;8441;51.344;7.022;2024-01-30T06:43:24;8.00;99.90
16655;DHT22;8441;51.344;7.022;2024-01-30T06:45:51;8.10;99.90
16655;DHT22;8441;51.344;7.022;2024-01-30T06:48:18;8.10;99.90
16655;DHT22;8441;51.344;7.022;2024-01-30T06:50:45;8.10;99.90
16655;DHT22;8441;51.344;7.022;2024-01-30T06:53:13;8.10;99.90
16655;DHT22;8441;51.344;7.022;2024-01-30T06:55:41;8.20;99.90
16655;DHT22;8441;51.344;7.022;2024-01-30T06:58:10;8.20;99.90
16655;DHT22;8441;51.344;7.022;2024-01-30T07:00:37;8.30;99.90
16655;DHT22;8441;51.344;7.022;2024-01-30T07:03:05;8.30;99.90
16655;DHT22;8441;51.344;7.022;2024-01-30T07:05:32;8.30;99.90
16655;DHT22;8441;51.344;7.022;2024-01-30T07:07:59;8.30;99.90
16655;DHT22;8441;51.344;7.022;2024-01-30T07:10:27;8.30;99.90
16655;DHT22;8441;51.344;7.022;2024-01-30T07:12:54;8.30;99.90
16655;DHT22;8441;51.344;7.022;2024-01-30T07:15:23;8.40;99.90
16655;DHT22;8441;51.344;7.022;2024-01-30T07:17:51;8.40;99.90
16655;DHT22;8441;51.344;7.022;2024-01-30T07:20:19;8.40;99.90
16655;DHT22;8441;51.344;7.022;2024-01-30T07:22:47;8.40;99.90
16655;DHT22;8441;51.344;7.022;2024-01-30T07:25:14;8.40;99.90
16655;DHT22;8441;51.344;7.022;2024-01-30T07:27:42;8.40;99.90
16655;DHT22;8441;51.344;7.022;2024-01-30T07:30:10;8.40;99.90
16655;DHT22;8441;51.344;7.022;2024-01-30T07:32:38;8.50;99.90
16655;DHT22;8441;51.344;7.022;2024-01-30T07:35:06;8.50;99.90
16655;DHT22;8441;51.344;7.022;2024-01-30T07:37:34;8.50;99.90
16655;DHT22;8441;51.344;7.022;2024-01-30T07:40:01;8.50;99.90
16655;DHT22;8441;51.344;7.022;2024-01-30T07:42:29;8.60;99.90
16655;DHT22;8441;51.344;7.022;2024-01-30T07:44:56;8.60;99.90
16655;DHT22;8441;51.344;7.022;2024-01-30T07:47:24;8.60;99.90
16655;DHT22;8441;51.344;7.022;2024-01-30T07:49:52;8.70;99.90
16655;DHT22;8441;51.344;7.022;2024-01-30T07:52:20;8.60;99.90
16655;DHT22;8441;51.344;7.022;2024-01-30T07:54:47;8.60;99.90
16655;DHT22;8441;51.344;7.022;2024-01-30T07:57:14;8.70;99.90
16655;DHT22;8441;51.344;7.022;2024-01-30T07:59:42;8.70;99.90
16655;DHT22;8441;51.344;7.022;2024-01-30T08:02:11;8.70;99.90
16655;DHT22;8441;51.344;7.022;2024-01-30T08:04:39;8.80;99.90
16655;DHT22;8441;51.344;7.022;2024-01-30T08:07:07;8.80;99.90
16655;DHT22;8441;51.344;7.022;2024-01-30T08:09:35;8.80;99.90
16655;DHT22;8441;51.344;7.022;2024-01-30T08:12:02;8.90;99.90
16655;DHT22;8441;51.344;7.022;2024-01-30T08:14:30;8.90;99.90
16655;DHT22;8441;51.344;7.022;2024-01-30T08:16:57;8.90;99.90
16655;DHT22;8441;51.344;7.022;2024-01-30T08:19:24;8.90;99.90
16655;DHT22;8441;51.344;7.022;2024-01-30T08:21:52;8.90;99.90
16655;DHT22;8441;51.344;7.022;2024-01-30T08:24:20;9.00;99.90
16655;DHT22;8441;51.344;7.022;2024-01-30T08:26:47;9.00;99.90
16655;DHT22;8441;51.344;7.022;2024-01-30T08:29:15;9.00;99.90
16655;DHT22;8441;51.344;7.022;2024-01-30T08:31:42;9.10;99.90
16655;DHT22;8441;51.344;7.022;2024-01-30T08:34:10;9.10;99.90
16655;DHT22;8441;51.344;7.022;2024-01-30T08:36:37;9.10;99.90
16655;DHT22;8441;51.344;7.022;2024-01-30T08:39:04;9.20;99.90
16655;DHT22;8441;51.344;7.022;2024-01-30T08:41:33;9.30;99.90
16655;DHT22;8441;51.344;7.022;2024-01-30T08:44:01;9.20;99.90
16655;DHT22;8441;51.344;7.022;2024-01-30T08:46:29;9.30;99.90
16655;DHT22;8441;51.344;7.022;2024-01-30T08:48:56;9.30;99.90
16655;DHT22;8441;51.344;7.022;2024-01-30T08:51:23;9.40;99.90
16655;DHT22;8441;51.344;7.022;2024-01-30T08:53:50;9.40;99.90
16655;DHT22;8441;51.344;7.022;2024-01-30T08:56:18;9.40;99.90
16655;DHT22;8441;51.344;7.022;2024-01-30T08:58:50;9.60;99.90
16655;DHT22;8441;51.344;7.022;2024-01-30T09:01:17;9.60;99.90
16655;DHT22;8441;51.344;7.022;2024-01-30T09:03:45;9.70;99.90
16655;DHT22;8441;51.344;7.022;2024-01-30T09:06:12;9.70;99.90
16655;DHT22;8441;51.344;7.022;2024-01-30T09:08:40;9.80;99.90
16655;DHT22;8441;51.344;7.022;2024-01-30T09:11:09;9.90;99.90
16655;DHT22;8441;51.344;7.022;2024-01-30T09:13:36;9.90;99.90
16655;DHT22;8441;51.344;7.022;2024-01-30T09:16:06;9.90;99.90
16655;DHT22;8441;51.344;7.022;2024-01-30T09:18:33;9.90;99.90
16655;DHT22;8441;51.344;7.022;2024-01-30T09:21:00;9.90;99.90
16655;DHT22;8441;51.344;7.022;2024-01-30T09:23:28;9.90;99.90
16655;DHT22;8441;51.344;7.022;2024-01-30T09:25:55;9.90;99.90
16655;DHT22;8441;51.344;7.022;2024-01-30T09:28:22;9.80;99.90
16655;DHT22;8441;51.344;7.022;2024-01-30T09:30:50;9.90;99.90
16655;DHT22;8441;51.344;7.022;2024-01-30T09:33:18;9.90;99.90
16655;DHT22;8441;51.344;7.022;2024-01-30T09:35:46;10.00;99.90
16655;DHT22;8441;51.344;7.022;2024-01-30T09:38:12;10.10;99.90
16655;DHT22;8441;51.344;7.022;2024-01-30T09:40:39;10.20;99.90
16655;DHT22;8441;51.344;7.022;2024-01-30T09:43:07;10.20;99.90
16655;DHT22;8441;51.344;7.022;2024-01-30T09:45:35;10.30;99.90
16655;DHT22;8441;51.344;7.022;2024-01-30T09:48:03;10.20;99.90
16655;DHT22;8441;51.344;7.022;2024-01-30T09:50:32;10.30;99.90
16655;DHT22;8441;51.344;7.022;2024-01-30T09:53:02;10.30;99.90
16655;DHT22;8441;51.344;7.022;2024-01-30T09:55:29;10.40;99.90
16655;DHT22;8441;51.344;7.022;2024-01-30T09:57:57;10.40;99.90
16655;DHT22;8441;51.344;7.022;2024-01-30T10:00:25;10.50;99.90
16655;DHT22;8441;51.344;7.022;2024-01-30T10:02:53;10.60;99.90
16655;DHT22;8441;51.344;7.022;2024-01-30T10:05:21;10.60;99.90
16655;DHT22;8441;51.344;7.022;2024-01-30T10:07:55;10.70;99.90
16655;DHT22;8441;51.344;7.022;2024-01-30T10:10:24;10.80;99.90
16655;DHT22;8441;51.344;7.022;2024-01-30T10:12:51;10.90;99.90
16655;DHT22;8441;51.344;7.022;2024-01-30T10:15:18;11.00;99.90
16655;DHT22;8441;51.344;7.022;2024-01-30T10:17:45;11.10;99.90
16655;DHT22;8441;51.344;7.022;2024-01-30T10:20:13;11.10;99.90
16655;DHT22;8441;51.344;7.022;2024-01-30T10:22:40;11.20;99.90
16655;DHT22;8441;51.344;7.022;2024-01-30T10:25:11;11.20;99.90
16655;DHT22;8441;51.344;7.022;2024-01-30T10:27:39;11.30;99.90
16655;DHT22;8441;51.344;7.022;2024-01-30T10:30:08;11.40;99.90
16655;DHT22;8441;51.344;7.022;2024-01-30T10:32:35;11.40;99.90
16655;DHT22;8441;51.344;7.022;2024-01-30T10:35:03;11.60;99.90
16655;DHT22;8441;51.344;7.022;2024-01-30T10:37:30;11.60;99.90
16655;DHT22;8441;51.344;7.022;2024-01-30T10:40:02;11.70;99.90
16655;DHT22;8441;51.344;7.022;2024-01-30T10:42:33;11.80;99.90
16655;DHT22;8441;51.344;7.022;2024-01-30T10:45:06;11.80;99.90
16655;DHT22;8441;51.344;7.022;2024-01-30T10:47:35;11.80;99.90
16655;DHT22;8441;51.344;7.022;2024-01-30T10:50:03;11.80;99.90
16655;DHT22;8441;51.344;7.022;2024-01-30T10:52:32;11.80;99.90
16655;DHT22;8441;51.344;7.022;2024-01-30T10:55:00;11.90;99.90
16655;DHT22;8441;51.344;7.022;2024-01-30T10:57:27;11.90;99.90
16655;DHT22;8441;51.344;7.022;2024-01-30T10:59:58;11.90;99.90
16655;DHT22;8441;51.344;7.022;2024-01-30T11:02:26;12.10;99.90
16655;DHT22;8441;51.344;7.022;2024-01-30T11:04:55;12.10;99.90
16655;DHT22;8441;51.344;7.022;2024-01-30T11:07:25;12.20;99.90
16655;DHT22;8441;51.344;7.022;2024-01-30T11:09:53;12.30;99.90
16655;DHT22;8441;51.344;7.022;2024-01-30T11:12:24;12.40;99.90
16655;DHT22;8441;51.344;7.022;2024-01-30T11:15:04;12.50;99.90
16655;DHT22;8441;51.344;7.022;2024-01-30T11:17:45;12.40;99.90
16655;DHT22;8441;51.344;7.022;2024-01-30T11:20:14;12.40;99.90
16655;DHT22;8441;51.344;7.022;2024-01-30T11:22:44;12.40;99.90
16655;DHT22;8441;51.344;7.022;2024-01-30T11:25:12;12.40;99.90
16655;DHT22;8441;51.344;7.022;2024-01-30T11:27:41;12.40;99.90
16655;DHT22;8441;51.344;7.022;2024-01-30T11:30:11;12.40;99.90
16655;DHT22;8441;51.344;7.022;2024-01-30T11:32:38;12.40;99.90
16655;DHT22;8441;51.344;7.022;2024-01-30T11:35:06;12.40;99.90
16655;DHT22;8441;51.344;7.022;2024-01-30T11:37:37;12.60;99.90
16655;DHT22;8441;51.344;7.022;2024-01-30T11:40:06;12.60;99.90
16655;DHT22;8441;51.344;7.022;2024-01-30T11:42:34;12.50;99.90
16655;DHT22;8441;51.344;7.022;2024-01-30T11:45:06;12.50;99.90
16655;DHT22;8441;51.344;7.022;2024-01-30T11:47:36;12.40;99.90
16655;DHT22;8441;51.344;7.022;2024-01-30T11:50:04;12.40;99.90
16655;DHT22;8441;51.344;7.022;2024-01-30T11:52:32;12.40;99.90
16655;DHT22;8441;51.344;7.022;2024-01-30T11:55:00;12.30;99.90
16655;DHT22;8441;51.344;7.022;2024-01-30T11:57:28;12.30;99.90
16655;DHT22;8441;51.344;7.022;2024-01-30T11:59:56;12.20;99.90
16655;DHT22;8441;51.344;7.022;2024-01-30T12:02:23;12.10;99.90
16655;DHT22;8441;51.344;7.022;2024-01-30T12:04:52;12.10;99.90
16655;DHT22;8441;51.344;7.022;2024-01-30T12:07:19;11.90;99.90
16655;DHT22;8441;51.344;7.022;2024-01-30T12:09:52;11.90;99.90
16655;DHT22;8441;51.344;7.022;2024-01-30T12:12:21;11.80;99.90
16655;DHT22;8441;51.344;7.022;2024-01-30T12:14:49;11.80;99.90
16655;DHT22;8441;51.344;7.022;2024-01-30T12:17:24;11.70;99.90
16655;DHT22;8441;51.344;7.022;2024-01-30T12:20:02;11.70;99.90
16655;DHT22;8441;51.344;7.022;2024-01-30T12:22:30;11.70;99.90
16655;DHT22;8441;51.344;7.022;2024-01-30T12:24:57;11.60;99.90
16655;DHT22;8441;51.344;7.022;2024-01-30T12:27:25;11.60;99.90
16655;DHT22;8441;51.344;7.022;2024-01-30T12:29:56;11.60;99.90
16655;DHT22;8441;51.344;7.022;2024-01-30T12:32:23;11.60;99.90
16655;DHT22;8441;51.344;7.022;2024-01-30T12:34:56;11.60;99.90
16655;DHT22;8441;51.344;7.022;2024-01-30T12:37:24;11.60;99.90
16655;DHT22;8441;51.344;7.022;2024-01-30T12:39:52;11.60;99.90
16655;DHT22;8441;51.344;7.022;2024-01-30T12:42:20;11.60;99.90
16655;DHT22;8441;51.344;7.022;2024-01-30T12:44:48;11.60;99.90
16655;DHT22;8441;51.344;7.022;2024-01-30T12:47:15;11.50;99.90
16655;DHT22;8441;51.344;7.022;2024-01-30T12:49:42;11.50;99.90
16655;DHT22;8441;51.344;7.022;2024-01-30T12:52:12;11.50;99.90
16655;DHT22;8441;51.344;7.022;2024-01-30T12:54:40;11.50;99.90
16655;DHT22;8441;51.344;7.022;2024-01-30T12:57:07;11.50;99.90
16655;DHT22;8441;51.344;7.022;2024-01-30T12:59:34;11.50;99.90
16655;DHT22;8441;51.344;7.022;2024-01-30T13:02:02;11.40;99.90
16655;DHT22;8441;51.344;7.022;2024-01-30T13:04:30;11.40;99.90
16655;DHT22;8441;51.344;7.022;2024-01-30T13:06:57;11.40;99.90
16655;DHT22;8441;51.344;7.022;2024-01-30T13:09:29;11.30;99.90
16655;DHT22;8441;51.344;7.022;2024-01-30T13:11:56;11.30;99.90
16655;DHT22;8441;51.344;7.022;2024-01-30T13:14:24;11.30;99.90
16655;DHT22;8441;51.344;7.022;2024-01-30T13:16:51;11.30;99.90
16655;DHT22;8441;51.344;7.022;2024-01-30T13:19:18;11.20;99.90
16655;DHT22;8441;51.344;7.022;2024-01-30T13:21:46;11.20;99.90
16655;DHT22;8441;51.344;7.022;2024-01-30T13:24:13;11.20;99.90
16655;DHT22;8441;51.344;7.022;2024-01-30T13:26:44;11.20;99.90
16655;DHT22;8441;51.344;7.022;2024-01-30T13:29:11;11.20;99.90
16655;DHT22;8441;51.344;7.022;2024-01-30T13:31:38;11.20;99.90
16655;DHT22;8441;51.344;7.022;2024-01-30T13:34:06;11.10;99.90
16655;DHT22;8441;51.344;7.022;2024-01-30T13:36:34;11.10;99.90
16655;DHT22;8441;51.344;7.022;2024-01-30T13:39:01;11.10;99.90
16655;DHT22;8441;51.344;7.022;2024-01-30T13:41:30;11.10;99.90
16655;DHT22;8441;51.344;7.022;2024-01-30T13:43:59;11.10;99.90
16655;DHT22;8441;51.344;7.022;2024-01-30T13:46:29;11.00;99.90
16655;DHT22;8441;51.344;7.022;2024-01-30T13:48:56;11.10;99.90
16655;DHT22;8441;51.344;7.022;2024-01-30T13:51:23;11.10;99.90
16655;DHT22;8441;51.344;7.022;2024-01-30T13:53:50;11.10;99.90
16655;DHT22;8441;51.344;7.022;2024-01-30T13:56:19;11.10;99.90
16655;DHT22;8441;51.344;7.022;2024-01-30T13:58:47;11.10;99.90
16655;DHT22;8441;51.344;7.022;2024-01-30T14:01:16;11.20;99.90
16655;DHT22;8441;51.344;7.022;2024-01-30T14:03:43;11.20;99.90
16655;DHT22;8441;51.344;7.022;2024-01-30T14:06:11;11.20;99.90
16655;DHT22;8441;51.344;7.022;2024-01-30T14:08:38;11.30;99.90
16655;DHT22;8441;51.344;7.022;2024-01-30T14:11:05;11.30;99.90
16655;DHT22;8441;51.344;7.022;2024-01-30T14:13:33;11.20;99.90
16655;DHT22;8441;51.344;7.022;2024-01-30T14:16:00;11.30;99.90
16655;DHT22;8441;51.344;7.022;2024-01-30T14:18:29;11.30;99.90
16655;DHT22;8441;51.344;7.022;2024-01-30T14:20:56;11.30;99.90
16655;DHT22;8441;51.344;7.022;2024-01-30T14:23:24;11.30;99.90
16655;DHT22;8441;51.344;7.022;2024-01-30T14:25:51;11.40;99.90
16655;DHT22;8441;51.344;7.022;2024-01-30T14:28:18;11.50;99.90
16655;DHT22;8441;51.344;7.022;2024-01-30T14:30:46;11.60;99.90
16655;DHT22;8441;51.344;7.022;2024-01-30T14:33:13;11.60;99.90
16655;DHT22;8441;51.344;7.022;2024-01-30T14:35:42;11.70;99.90
16655;DHT22;8441;51.344;7.022;2024-01-30T14:38:09;11.70;99.90
16655;DHT22;8441;51.344;7.022;2024-01-30T14:40:38;11.70;99.90
16655;DHT22;8441;51.344;7.022;2024-01-30T14:43:08;11.70;99.90
16655;DHT22;8441;51.344;7.022;2024-01-30T14:45:36;11.70;99.90
16655;DHT22;8441;51.344;7.022;2024-01-30T14:48:03;11.60;99.90
16655;DHT22;8441;51.344;7.022;2024-01-30T14:50:31;11.60;99.90
16655;DHT22;8441;51.344;7.022;2024-01-30T14:52:59;11.50;99.90
16655;DHT22;8441;51.344;7.022;2024-01-30T14:55:27;11.50;99.90
16655;DHT22;8441;51.344;7.022;2024-01-30T14:57:54;11.50;99.90
16655;DHT22;8441;51.344;7.022;2024-01-30T15:00:21;11.50;99.90
16655;DHT22;8441;51.344;7.022;2024-01-30T15:02:49;11.40;99.90
16655;DHT22;8441;51.344;7.022;2024-01-30T15:05:16;11.40;99.90
16655;DHT22;8441;51.344;7.022;2024-01-30T15:07:43;11.30;99.90
16655;DHT22;8441;51.344;7.022;2024-01-30T15:10:12;11.30;99.90
16655;DHT22;8441;51.344;7.022;2024-01-30T15:12:39;11.30;99.90
16655;DHT22;8441;51.344;7.022;2024-01-30T15:15:08;11.20;99.90
16655;DHT22;8441;51.344;7.022;2024-01-30T15:17:35;11.20;99.90
16655;DHT22;8441;51.344;7.022;2024-01-30T15:20:02;11.10;99.90
16655;DHT22;8441;51.344;7.022;2024-01-30T15:22:30;11.10;99.90
16655;DHT22;8441;51.344;7.022;2024-01-30T15:24:57;11.10;99.90
16655;DHT22;8441;51.344;7.022;2024-01-30T15:27:26;11.10;99.90
16655;DHT22;8441;51.344;7.022;2024-01-30T15:29:53;11.10;99.90
16655;DHT22;8441;51.344;7.022;2024-01-30T15:32:20;11.00;99.90
16655;DHT22;8441;51.344;7.022;2024-01-30T15:34:48;11.00;99.90
16655;DHT22;8441;51.344;7.022;2024-01-30T15:37:15;10.90;99.90
16655;DHT22;8441;51.344;7.022;2024-01-30T15:39:42;10.80;99.90
16655;DHT22;8441;51.344;7.022;2024-01-30T15:42:10;10.80;99.90
16655;DHT22;8441;51.344;7.022;2024-01-30T15:44:38;10.70;99.90
16655;DHT22;8441;51.344;7.022;2024-01-30T15:47:06;10.70;99.90
16655;DHT22;8441;51.344;7.022;2024-01-30T15:49:33;10.70;99.90
16655;DHT22;8441;51.344;7.022;2024-01-30T15:52:00;10.70;99.90
16655;DHT22;8441;51.344;7.022;2024-01-30T15:54:28;10.60;99.90
16655;DHT22;8441;51.344;7.022;2024-01-30T15:56:55;10.60;99.90
16655;DHT22;8441;51.344;7.022;2024-01-30T15:59:22;10.50;99.90